Aviation Digital Data Service (ADDS)

Output produced by TAFs form (0207 UTC 28 August 2016)
found at http://aviationweather.gov/adds/tafs/
 
KELP 280138Z 2802/2824 12008KT P6SM VCTS SCT060CB BKN120 
     TEMPO 2802/2803 VRB30G45KT 3SM TSRAGS BKN030CB OVC100 
     FM280400 14007KT P6SM VCTS SCT060CB BKN100 BKN200 
     FM280900 06006KT P6SM VCSH SCT050 BKN100 BKN200 
     FM281800 12007KT P6SM VCTS SCT060CB BKN100